createdAt,value
2019-04-23T00:02:46.136Z,50.16
2019-04-23T00:04:54.172Z,50.08
2019-04-23T00:07:43.140Z,49.97
2019-04-23T00:10:12.722Z,49.71
2019-04-23T00:12:49.633Z,50.08
2019-04-23T00:15:08.753Z,50.16
2019-04-23T00:20:10.091Z,50.21
2019-04-23T00:23:02.441Z,49.73
2019-04-23T00:28:14.177Z,50.38
2019-04-23T00:30:44.078Z,50.30
2019-04-23T00:33:12.593Z,50.29
2019-04-23T00:35:43.424Z,50.17
2019-04-23T00:38:18.216Z,50.13
2019-04-23T00:40:47.287Z,50.51
2019-04-23T00:43:15.449Z,50.27
2019-04-23T00:48:31.146Z,50.33
2019-04-23T00:50:49.179Z,50.65
2019-04-23T00:53:23.416Z,50.73
2019-04-23T00:56:01.985Z,50.50
2019-04-23T00:58:29.095Z,49.90
2019-04-23T01:00:52.835Z,49.82
2019-04-23T01:03:21.422Z,49.76
2019-04-23T01:05:52.689Z,49.93
2019-04-23T01:11:02.734Z,50.54
2019-04-23T01:13:39.593Z,51.19
2019-04-23T01:19:04.170Z,51.73
2019-04-23T01:21:09.843Z,51.49
2019-04-23T01:24:02.739Z,51.24
2019-04-23T01:27:01.743Z,51.11
2019-04-23T01:29:30.475Z,50.85
2019-04-23T01:31:57.442Z,50.55
2019-04-23T01:34:31.425Z,50.63
2019-04-23T01:36:57.481Z,50.88
2019-04-23T01:39:28.031Z,51.44
2019-04-23T01:42:20.173Z,50.86
2019-04-23T01:44:36.728Z,51.57
2019-04-23T01:47:07.781Z,51.37
2019-04-23T01:49:48.407Z,51.20
2019-04-23T01:52:08.376Z,51.23
2019-04-23T01:54:39.435Z,51.60
2019-04-23T01:57:12.961Z,51.88
2019-04-23T01:59:49.462Z,52.03
2019-04-23T02:02:12.137Z,50.96
2019-04-23T02:04:46.045Z,50.88
2019-04-23T02:07:22.086Z,50.94
2019-04-23T02:09:50.976Z,51.90
2019-04-23T02:12:18.168Z,52.49
2019-04-23T02:14:51.672Z,51.91
2019-04-23T02:17:21.930Z,52.91
2019-04-23T02:19:51.742Z,53.39
2019-04-23T02:22:52.668Z,56.55
2019-04-23T02:25:34.901Z,57.39
2019-04-23T02:27:59.915Z,56.49
2019-04-23T02:33:10.476Z,56.58
2019-04-23T02:38:15.790Z,56.94
2019-04-23T02:40:49.514Z,56.53
2019-04-23T02:50:39.772Z,56.47
2019-04-23T02:53:20.782Z,57.37
2019-04-23T02:55:50.448Z,57.49
2019-04-23T02:58:18.559Z,58.42
2019-04-23T03:03:25.182Z,56.22
2019-04-23T03:05:54.912Z,56.52
2019-04-23T03:11:01.342Z,56.38
2019-04-23T03:19:02.621Z,57.62
2019-04-23T03:21:54.356Z,58.53
2019-04-23T03:24:39.021Z,59.44
2019-04-23T03:29:40.506Z,60.78
2019-04-23T03:37:20.124Z,61.61
2019-04-23T03:42:22.278Z,62.40
2019-04-23T03:44:47.793Z,63.74
2019-04-23T03:47:18.465Z,63.20
2019-04-23T03:49:48.134Z,62.48
2019-04-23T03:52:27.835Z,62.74
2019-04-23T03:54:46.211Z,63.82
2019-04-23T04:04:45.293Z,70.59
2019-04-23T04:12:29.284Z,71.07
2019-04-23T04:17:26.728Z,72.36
2019-04-23T04:22:39.928Z,70.74
2019-04-23T04:30:19.218Z,71.10
2019-04-23T04:32:36.744Z,71.43
2019-04-23T04:42:46.174Z,71.02
2019-04-23T04:45:22.815Z,71.17
2019-04-23T04:47:42.736Z,70.91
2019-04-23T04:50:08.232Z,71.69
2019-04-23T04:52:49.025Z,71.89
2019-04-23T04:55:21.487Z,71.41
2019-04-23T04:58:00.517Z,71.51
2019-04-23T05:00:29.068Z,71.55
2019-04-23T05:07:48.159Z,72.32
2019-04-23T05:10:32.491Z,71.61
2019-04-23T05:13:15.663Z,71.36
2019-04-23T05:15:16.899Z,69.50
2019-04-23T05:18:23.649Z,69.13
2019-04-23T05:20:53.248Z,68.35
2019-04-23T05:23:28.137Z,69.99
2019-04-23T05:25:52.883Z,71.91
2019-04-23T05:28:36.199Z,71.62
2019-04-23T05:33:23.506Z,70.91
2019-04-23T05:38:46.021Z,70.86
2019-04-23T05:41:10.030Z,72.10
2019-04-23T05:43:35.799Z,71.11
2019-04-23T05:46:04.724Z,71.62
2019-04-23T05:48:33.357Z,72.75
2019-04-23T05:51:10.997Z,72.75
2019-04-23T05:53:39.767Z,75.31
2019-04-23T05:56:10.165Z,74.47
2019-04-23T06:06:44.551Z,71.54
2019-04-23T06:11:45.055Z,71.72
2019-04-23T06:14:29.108Z,71.33
2019-04-23T06:21:44.271Z,73.48
2019-04-23T06:24:16.308Z,73.48
2019-04-23T06:31:47.538Z,72.73
2019-04-23T06:34:17.144Z,73.18
2019-04-23T06:36:46.309Z,73.12
2019-04-23T06:39:24.288Z,73.40
2019-04-23T06:41:50.118Z,72.72
2019-04-23T06:44:28.461Z,73.17
2019-04-23T06:46:56.855Z,72.09
2019-04-23T06:49:32.877Z,72.40
2019-04-23T06:52:10.484Z,72.27
2019-04-23T06:54:38.796Z,70.74
2019-04-23T06:57:09.062Z,70.74
2019-04-23T06:59:33.587Z,70.92
2019-04-23T07:02:10.010Z,71.51
2019-04-23T07:09:34.925Z,71.70
2019-04-23T07:12:08.834Z,71.44
2019-04-23T07:14:44.092Z,71.44
2019-04-23T07:17:09.219Z,70.56
2019-04-23T07:19:42.400Z,69.90
2019-04-23T07:25:00.126Z,70.47
2019-04-23T07:27:13.206Z,69.28
2019-04-23T07:32:15.447Z,69.16
2019-04-23T07:34:59.208Z,69.16
2019-04-23T07:37:17.614Z,69.09
2019-04-23T07:40:21.621Z,69.77
2019-04-23T07:43:03.547Z,69.77
2019-04-23T07:45:24.016Z,70.08
2019-04-23T07:48:43.737Z,69.94
2019-04-23T07:51:00.573Z,69.76
2019-04-23T07:53:37.963Z,69.34
2019-04-23T07:58:28.629Z,68.50
2019-04-23T08:01:04.803Z,68.75
2019-04-23T08:03:40.462Z,68.38
2019-04-23T08:06:08.827Z,68.22
2019-04-23T08:08:39.867Z,67.59
2019-04-23T08:13:47.329Z,67.36
2019-04-23T08:16:23.280Z,67.56
2019-04-23T08:18:49.448Z,67.06
2019-04-23T08:21:15.764Z,67.47
2019-04-23T08:29:25.123Z,65.02
2019-04-23T08:32:16.421Z,64.28
2019-04-23T08:34:37.988Z,59.70
2019-04-23T08:39:38.553Z,53.50
2019-04-23T08:42:27.327Z,55.46
2019-04-23T08:45:10.476Z,54.81
2019-04-23T08:47:42.215Z,56.42
2019-04-23T08:50:04.333Z,57.99
2019-04-23T08:52:38.384Z,59.72
2019-04-23T08:55:13.633Z,62.54
2019-04-23T08:57:38.016Z,60.23
2019-04-23T09:00:14.164Z,59.14
2019-04-23T09:02:47.757Z,60.42
2019-04-23T09:05:26.243Z,60.50
2019-04-23T09:07:57.141Z,60.88
2019-04-23T09:12:49.155Z,58.29
2019-04-23T09:15:33.040Z,57.06
2019-04-23T09:17:56.225Z,56.15
2019-04-23T09:20:29.454Z,56.27
2019-04-23T09:22:50.358Z,55.97
2019-04-23T09:25:34.648Z,55.27
2019-04-23T09:27:59.468Z,54.38
2019-04-23T09:30:32.329Z,55.13
2019-04-23T09:33:28.758Z,55.17
2019-04-23T09:36:16.829Z,54.88
2019-04-23T09:38:55.784Z,54.55
2019-04-23T09:41:36.201Z,55.70
2019-04-23T09:44:56.279Z,54.47
2019-04-23T09:49:47.309Z,53.75
2019-04-23T09:52:23.501Z,54.11
2019-04-23T09:55:01.696Z,55.61
2019-04-23T09:57:17.140Z,55.96
2019-04-23T09:59:49.894Z,57.76
2019-04-23T10:02:14.718Z,58.10
2019-04-23T10:04:38.000Z,58.16
2019-04-23T10:07:12.627Z,58.73
2019-04-23T10:09:30.088Z,59.25
2019-04-23T10:12:01.001Z,59.75
2019-04-23T10:14:30.546Z,59.13
2019-04-23T10:17:00.148Z,59.81
2019-04-23T10:19:30.762Z,60.17
2019-04-23T10:22:01.677Z,59.07
2019-04-23T10:24:31.099Z,58.82
2019-04-23T10:27:01.940Z,59.08
2019-04-23T10:29:38.226Z,55.60
2019-04-23T10:32:09.350Z,52.23
2019-04-23T10:34:57.874Z,48.73
2019-04-23T10:37:11.303Z,48.30
2019-04-23T10:39:44.709Z,45.38
2019-04-23T10:42:14.078Z,46.52
2019-04-23T10:45:10.843Z,48.31
2019-04-23T10:48:31.723Z,46.89
2019-04-23T10:51:18.600Z,45.33
2019-04-23T10:54:02.993Z,43.87
2019-04-23T10:59:03.238Z,46.01
2019-04-23T11:01:35.816Z,47.09
2019-04-23T11:04:21.470Z,49.05
2019-04-23T11:06:45.455Z,48.93
2019-04-23T11:09:27.541Z,50.58
2019-04-23T11:12:02.178Z,51.78
2019-04-23T11:14:36.993Z,51.01
2019-04-23T11:17:04.454Z,51.00
2019-04-23T11:19:51.587Z,50.89
2019-04-23T11:22:28.104Z,50.26
2019-04-23T11:24:41.524Z,49.60
2019-04-23T11:27:20.361Z,50.58
2019-04-23T11:30:00.247Z,50.50
2019-04-23T11:32:32.539Z,51.67
2019-04-23T11:37:25.409Z,50.35
2019-04-23T11:39:44.594Z,49.71
2019-04-23T11:44:49.895Z,48.14
2019-04-23T11:48:04.443Z,49.78
2019-04-23T11:49:52.474Z,50.55
2019-04-23T11:52:30.731Z,51.43
2019-04-23T11:54:53.502Z,51.37
2019-04-23T11:59:53.085Z,53.19
2019-04-23T12:02:38.620Z,53.21
2019-04-23T12:05:26.611Z,52.75
2019-04-23T12:08:18.147Z,53.09
2019-04-23T12:11:24.027Z,54.11
2019-04-23T12:13:28.411Z,55.32
2019-04-23T12:15:53.990Z,56.02
2019-04-23T12:18:34.849Z,56.53
2019-04-23T12:21:21.572Z,56.52
2019-04-23T12:26:33.849Z,56.12
2019-04-23T12:28:57.738Z,54.82
2019-04-23T12:31:27.669Z,54.73
2019-04-23T12:33:57.343Z,53.99
2019-04-23T12:36:36.968Z,53.68
2019-04-23T12:39:04.407Z,52.45
2019-04-23T12:41:35.869Z,52.53
2019-04-23T12:44:09.703Z,51.30
2019-04-23T12:46:45.777Z,51.04
2019-04-23T12:49:28.366Z,51.98
2019-04-23T12:51:50.262Z,52.77
2019-04-23T12:54:20.602Z,52.53
2019-04-23T12:56:48.089Z,52.89
2019-04-23T12:59:17.153Z,53.03
2019-04-23T13:01:51.369Z,52.27
2019-04-23T13:04:18.660Z,52.65
2019-04-23T13:06:44.165Z,52.14
2019-04-23T13:09:35.046Z,52.41
2019-04-23T13:11:52.883Z,52.53
2019-04-23T13:14:29.484Z,52.13
2019-04-23T13:17:01.875Z,52.24
2019-04-23T13:19:37.473Z,52.92
2019-04-23T13:24:46.116Z,53.32
2019-04-23T13:27:23.982Z,52.88
2019-04-23T13:29:49.991Z,52.72
2019-04-23T13:32:23.587Z,53.32
2019-04-23T13:35:04.693Z,53.28
2019-04-23T13:37:31.705Z,53.83
2019-04-23T13:39:51.909Z,53.62
2019-04-23T13:42:33.433Z,53.98
2019-04-23T13:45:01.007Z,54.28
2019-04-23T13:50:00.304Z,54.85
2019-04-23T13:52:58.703Z,54.36
2019-04-23T13:58:04.997Z,54.48
2019-04-23T14:00:06.499Z,54.51
2019-04-23T14:02:37.184Z,54.71
2019-04-23T14:05:21.693Z,55.32
2019-04-23T14:07:55.610Z,55.72
2019-04-23T14:10:32.243Z,55.41
2019-04-23T14:13:08.811Z,55.11
2019-04-23T14:15:36.022Z,55.09
2019-04-23T14:18:22.666Z,55.78
2019-04-23T14:20:27.679Z,56.02
2019-04-23T14:23:07.847Z,56.21
2019-04-23T14:25:28.168Z,55.57
2019-04-23T14:28:13.968Z,55.90
2019-04-23T14:30:38.532Z,55.81
2019-04-23T14:33:15.870Z,57.28
2019-04-23T14:35:40.281Z,56.48
2019-04-23T14:43:14.529Z,57.27
2019-04-23T14:48:27.898Z,59.16
2019-04-23T14:50:48.771Z,58.99
2019-04-23T14:53:24.271Z,58.29
2019-04-23T14:58:31.288Z,58.24
2019-04-23T15:01:16.021Z,57.93
2019-04-23T15:03:44.947Z,57.30
2019-04-23T15:11:21.311Z,56.93
2019-04-23T15:13:49.453Z,55.91
2019-04-23T15:19:31.555Z,55.88
2019-04-23T15:28:49.076Z,57.33
2019-04-23T15:34:14.009Z,57.31
2019-04-23T15:39:24.524Z,59.06
2019-04-23T15:44:13.591Z,59.37
2019-04-23T15:46:51.279Z,59.47
2019-04-23T15:51:56.625Z,59.84
2019-04-23T15:54:29.872Z,59.46
2019-04-23T15:56:55.060Z,59.69
2019-04-23T15:59:34.647Z,59.79
2019-04-23T16:01:41.360Z,60.01
2019-04-23T16:03:59.119Z,59.50
2019-04-23T16:06:32.314Z,59.65
2019-04-23T16:09:16.247Z,60.17
2019-04-23T16:11:51.803Z,60.54
2019-04-23T16:14:32.969Z,60.38
2019-04-23T16:20:06.134Z,61.18
2019-04-23T16:22:18.952Z,61.04
2019-04-23T16:25:03.527Z,61.59
2019-04-23T16:27:14.930Z,61.66
2019-04-23T16:35:28.940Z,61.40
2019-04-23T16:38:01.627Z,61.66
2019-04-23T16:42:59.799Z,62.23
2019-04-23T16:45:27.040Z,62.25
2019-04-23T16:47:59.658Z,62.21
2019-04-23T16:50:31.019Z,62.29
2019-04-23T16:53:02.382Z,62.81
2019-04-23T16:55:34.601Z,62.92
2019-04-23T16:58:03.595Z,63.14
2019-04-23T17:00:34.795Z,63.82
2019-04-23T17:03:11.176Z,63.92
2019-04-23T17:05:39.309Z,64.00
2019-04-23T17:08:31.272Z,63.90
2019-04-23T17:10:42.821Z,64.01
2019-04-23T17:15:53.387Z,63.94
2019-04-23T17:18:22.561Z,63.55
2019-04-23T17:20:47.124Z,63.66
2019-04-23T17:23:25.554Z,63.43
2019-04-23T17:25:53.772Z,63.40
2019-04-23T17:31:05.248Z,62.94
2019-04-23T17:33:39.498Z,63.09
2019-04-23T17:39:05.559Z,63.11
2019-04-23T17:44:10.870Z,63.77
2019-04-23T17:46:37.573Z,64.80
2019-04-23T17:49:04.337Z,64.84
2019-04-23T17:51:31.261Z,65.27
2019-04-23T17:54:10.753Z,65.57
2019-04-23T17:56:55.818Z,65.60
2019-04-23T17:59:14.056Z,65.96
2019-04-23T18:01:47.546Z,65.87
2019-04-23T18:04:23.949Z,65.98
2019-04-23T18:06:50.867Z,65.83
2019-04-23T18:11:57.668Z,67.02
2019-04-23T18:14:16.490Z,67.15
2019-04-23T18:16:57.431Z,66.90
2019-04-23T18:22:35.489Z,67.03
2019-04-23T18:25:08.497Z,67.04
2019-04-23T18:27:42.536Z,67.21
2019-04-23T18:30:19.124Z,66.67
2019-04-23T18:35:29.917Z,66.95
2019-04-23T18:38:09.376Z,66.78
2019-04-23T18:40:55.214Z,66.44
2019-04-23T18:43:21.096Z,66.63
2019-04-23T18:45:45.130Z,66.73
2019-04-23T18:58:48.586Z,66.22
2019-04-23T19:06:40.858Z,65.98
2019-04-23T19:10:09.996Z,65.35
2019-04-23T19:12:36.021Z,65.68
2019-04-23T19:15:09.407Z,66.18
2019-04-23T19:20:01.124Z,66.45
2019-04-23T19:25:07.573Z,66.84
2019-04-23T19:27:40.426Z,66.31
2019-04-23T19:30:26.423Z,66.82
2019-04-23T19:32:50.767Z,66.72
2019-04-23T19:35:44.280Z,66.23
2019-04-23T19:40:28.347Z,65.86
2019-04-23T19:42:55.766Z,65.96
2019-04-23T19:45:28.350Z,66.99
2019-04-23T19:47:58.586Z,68.04
2019-04-23T19:50:33.001Z,66.71
2019-04-23T19:55:30.306Z,66.98
2019-04-23T19:58:05.063Z,67.12
2019-04-23T20:00:53.460Z,67.98
2019-04-23T20:03:28.180Z,68.69
2019-04-23T20:05:41.425Z,68.48
2019-04-23T20:10:48.192Z,68.00
2019-04-23T20:13:14.031Z,67.22
2019-04-23T20:15:51.160Z,67.32
2019-04-23T20:18:09.061Z,67.12
2019-04-23T20:23:24.802Z,68.12
2019-04-23T20:28:41.360Z,67.48
2019-04-23T20:32:03.175Z,64.93
2019-04-23T20:34:22.630Z,64.81
2019-04-23T20:36:38.496Z,64.18
2019-04-23T20:42:10.787Z,64.42
2019-04-23T20:47:05.747Z,64.85
2019-04-23T20:49:40.159Z,64.36
2019-04-23T20:54:56.524Z,63.66
2019-04-23T20:57:31.520Z,64.34
2019-04-23T21:05:10.070Z,64.03
2019-04-23T21:13:06.856Z,63.81
2019-04-23T21:17:54.647Z,63.43
2019-04-23T21:22:57.205Z,64.15
2019-04-23T21:25:18.849Z,64.26
2019-04-23T21:28:06.364Z,63.90
2019-04-23T21:31:03.435Z,64.29
2019-04-23T21:36:18.842Z,63.56
2019-04-23T21:39:15.100Z,63.65
2019-04-23T21:42:01.916Z,64.07
2019-04-23T21:52:17.564Z,65.28
2019-04-23T21:54:41.214Z,66.29
2019-04-23T21:57:02.369Z,66.34
2019-04-23T21:59:36.857Z,66.28
2019-04-23T22:02:28.761Z,65.97
2019-04-23T22:07:06.949Z,66.62
2019-04-23T22:09:43.773Z,66.10
2019-04-23T22:14:45.380Z,67.45
2019-04-23T22:17:16.874Z,68.20
2019-04-23T22:20:00.641Z,67.95
2019-04-23T22:22:16.940Z,67.88
2019-04-23T22:24:50.010Z,67.37
2019-04-23T22:27:20.184Z,69.09
2019-04-23T22:32:33.977Z,69.12
2019-04-23T22:37:25.378Z,68.59
2019-04-23T22:43:06.167Z,69.53
2019-04-23T22:47:33.555Z,69.04
2019-04-23T22:55:07.948Z,70.37
2019-04-23T22:57:56.450Z,70.27
2019-04-23T23:00:13.378Z,70.35
2019-04-23T23:05:50.653Z,70.05
2019-04-23T23:08:10.901Z,70.39
2019-04-23T23:10:48.354Z,69.96
2019-04-23T23:13:12.032Z,69.66
2019-04-23T23:15:51.042Z,69.14
2019-04-23T23:18:19.848Z,69.05
2019-04-23T23:20:46.397Z,68.83
2019-04-23T23:25:52.033Z,69.64
2019-04-23T23:28:26.165Z,69.82
2019-04-23T23:30:58.169Z,70.28
2019-04-23T23:35:54.143Z,70.11
2019-04-23T23:38:42.166Z,70.96
2019-04-23T23:41:03.628Z,71.24
2019-04-23T23:43:36.628Z,71.12
2019-04-23T23:46:06.947Z,70.09
2019-04-23T23:48:30.814Z,70.88
2019-04-23T23:51:29.085Z,69.98
2019-04-23T23:53:40.061Z,70.27
2019-04-23T23:58:56.868Z,70.81
